createdAt,value
2018-08-16T00:00:00.221Z,0.00
2018-08-16T00:01:00.196Z,0.00
2018-08-16T00:02:00.173Z,0.00
2018-08-16T00:03:00.150Z,0.00
2018-08-16T00:04:00.127Z,0.00
2018-08-16T00:05:00.100Z,0.00
2018-08-16T00:06:00.075Z,0.00
2018-08-16T00:07:00.098Z,0.00
2018-08-16T00:08:00.036Z,0.00
2018-08-16T00:09:00.012Z,0.00
2018-08-16T00:09:59.979Z,0.00
2018-08-16T00:11:00.157Z,0.00
2018-08-16T00:11:59.931Z,0.00
2018-08-16T00:12:59.905Z,0.00
2018-08-16T00:13:59.882Z,0.00
2018-08-16T00:14:59.858Z,0.00
2018-08-16T00:15:59.839Z,0.00
2018-08-16T00:16:59.809Z,0.00
2018-08-16T00:17:59.785Z,0.00
2018-08-16T00:18:59.761Z,0.00
2018-08-16T00:19:59.738Z,0.00
2018-08-16T00:20:59.712Z,0.00
2018-08-16T00:21:59.688Z,0.00
2018-08-16T00:22:59.664Z,0.00
2018-08-16T00:23:59.646Z,0.00
2018-08-16T00:24:59.616Z,0.00
2018-08-16T00:25:59.595Z,0.00
2018-08-16T00:26:59.568Z,0.00
2018-08-16T00:27:59.544Z,0.00
2018-08-16T00:28:59.722Z,0.00
2018-08-16T00:29:59.495Z,0.00
2018-08-16T00:30:59.474Z,0.00
2018-08-16T00:31:59.446Z,0.00
2018-08-16T00:32:59.422Z,0.00
2018-08-16T00:34:41.751Z,0.00
2018-08-16T00:35:41.524Z,0.00
2018-08-16T00:36:41.500Z,0.00
2018-08-16T00:37:41.476Z,0.00
2018-08-16T00:38:41.456Z,0.00
2018-08-16T00:39:41.427Z,0.00
2018-08-16T00:40:41.404Z,0.00
2018-08-16T00:41:41.379Z,0.00
2018-08-16T00:42:41.507Z,0.00
2018-08-16T00:43:41.329Z,0.00
2018-08-16T00:44:41.310Z,0.00
2018-08-16T00:45:41.283Z,0.00
2018-08-16T00:46:41.257Z,0.00
2018-08-16T00:47:41.232Z,0.00
2018-08-16T00:48:41.215Z,0.00
2018-08-16T00:49:41.187Z,0.00
2018-08-16T00:50:41.161Z,0.00
2018-08-16T00:51:41.136Z,0.00
2018-08-16T00:52:41.112Z,0.00
2018-08-16T00:53:41.087Z,0.00
2018-08-16T00:54:41.063Z,0.00
2018-08-16T00:55:41.038Z,0.00
2018-08-16T00:56:41.014Z,0.00
2018-08-16T00:57:40.992Z,0.00
2018-08-16T00:58:40.965Z,0.00
2018-08-16T00:59:40.940Z,0.00
2018-08-16T01:00:40.916Z,0.00
2018-08-16T01:01:40.895Z,0.00
2018-08-16T01:02:40.867Z,0.00
2018-08-16T01:03:40.850Z,0.00
2018-08-16T01:04:40.825Z,0.00
2018-08-16T01:05:40.795Z,0.00
2018-08-16T01:06:40.770Z,0.00
2018-08-16T01:07:40.747Z,0.00
2018-08-16T01:08:40.721Z,0.00
2018-08-16T01:09:40.697Z,0.00
2018-08-16T01:10:40.673Z,0.00
2018-08-16T01:11:40.646Z,0.00
2018-08-16T01:12:40.627Z,0.00
2018-08-16T01:13:40.599Z,0.00
2018-08-16T01:14:40.575Z,0.00
2018-08-16T01:15:40.550Z,0.00
2018-08-16T01:16:40.532Z,0.00
2018-08-16T01:17:40.535Z,0.00
2018-08-16T01:18:40.478Z,0.00
2018-08-16T01:19:40.453Z,0.00
2018-08-16T01:20:40.429Z,0.00
2018-08-16T01:21:40.404Z,0.00
2018-08-16T01:22:40.380Z,0.00
2018-08-16T01:23:40.357Z,0.00
2018-08-16T01:24:40.329Z,0.00
2018-08-16T01:25:40.307Z,0.00
2018-08-16T01:26:40.281Z,0.00
2018-08-16T01:27:40.256Z,0.00
2018-08-16T01:28:40.233Z,0.00
2018-08-16T01:29:40.207Z,0.00
2018-08-16T01:30:40.183Z,0.00
2018-08-16T01:31:40.158Z,0.00
2018-08-16T01:32:40.134Z,0.00
2018-08-16T01:33:40.115Z,0.00
2018-08-16T01:34:40.085Z,0.00
2018-08-16T01:35:40.135Z,0.00
2018-08-16T01:36:40.040Z,0.00
2018-08-16T01:37:40.012Z,0.00
2018-08-16T01:38:39.987Z,0.00
2018-08-16T01:39:39.962Z,0.00
2018-08-16T01:40:39.939Z,0.00
2018-08-16T01:41:39.913Z,0.00
2018-08-16T01:42:39.889Z,0.00
2018-08-16T01:43:39.864Z,0.00
2018-08-16T01:44:39.842Z,0.00
2018-08-16T01:45:39.815Z,0.00
2018-08-16T01:46:39.941Z,0.00
2018-08-16T01:47:39.765Z,0.00
2018-08-16T01:48:39.746Z,0.00
2018-08-16T01:49:39.718Z,0.00
2018-08-16T01:50:39.693Z,0.00
2018-08-16T01:51:39.668Z,0.00
2018-08-16T01:52:39.643Z,0.00
2018-08-16T01:53:39.619Z,0.00
2018-08-16T01:54:39.599Z,0.00
2018-08-16T01:55:39.573Z,0.00
2018-08-16T01:56:39.545Z,0.00
2018-08-16T01:57:39.521Z,0.00
2018-08-16T01:58:39.546Z,0.00
2018-08-16T01:59:39.472Z,0.00
2018-08-16T02:00:39.446Z,0.00
2018-08-16T02:01:39.424Z,0.00
2018-08-16T02:02:39.398Z,0.00
2018-08-16T02:03:39.373Z,0.00
2018-08-16T02:04:39.351Z,0.00
2018-08-16T02:05:39.324Z,0.00
2018-08-16T02:06:39.300Z,0.00
2018-08-16T02:07:39.274Z,0.00
2018-08-16T02:08:39.253Z,0.00
2018-08-16T02:09:39.228Z,0.00
2018-08-16T02:10:39.202Z,0.00
2018-08-16T02:11:39.175Z,0.00
2018-08-16T02:12:39.151Z,0.00
2018-08-16T02:13:39.130Z,0.00
2018-08-16T02:14:39.108Z,0.00
2018-08-16T02:15:39.078Z,0.00
2018-08-16T02:16:39.052Z,0.00
2018-08-16T02:17:39.029Z,0.00
2018-08-16T02:18:39.007Z,0.00
2018-08-16T02:19:38.979Z,0.00
2018-08-16T02:20:38.959Z,0.00
2018-08-16T02:21:38.931Z,0.00
2018-08-16T02:22:38.910Z,0.00
2018-08-16T02:23:38.880Z,0.00
2018-08-16T02:24:38.856Z,0.00
2018-08-16T02:25:38.834Z,0.00
2018-08-16T02:26:38.810Z,0.00
2018-08-16T02:27:38.783Z,0.00
2018-08-16T02:28:38.757Z,0.00
2018-08-16T02:29:38.733Z,0.00
2018-08-16T02:30:38.710Z,0.00
2018-08-16T02:31:38.683Z,0.00
2018-08-16T02:32:38.659Z,0.00
2018-08-16T02:33:38.649Z,0.00
2018-08-16T02:34:38.613Z,0.00
2018-08-16T02:35:38.583Z,0.00
2018-08-16T02:36:38.561Z,0.00
2018-08-16T02:37:38.534Z,0.00
2018-08-16T02:38:38.511Z,0.00
2018-08-16T02:39:38.486Z,0.00
2018-08-16T02:40:38.461Z,0.00
2018-08-16T02:41:38.439Z,0.00
2018-08-16T02:42:38.414Z,0.00
2018-08-16T02:43:38.389Z,0.00
2018-08-16T02:44:38.364Z,0.00
2018-08-16T02:45:38.338Z,0.00
2018-08-16T02:46:38.316Z,0.00
2018-08-16T02:47:38.289Z,0.00
2018-08-16T02:48:38.263Z,0.00
2018-08-16T02:49:38.240Z,0.00
2018-08-16T02:50:38.214Z,0.00
2018-08-16T02:51:38.368Z,0.00
2018-08-16T02:52:38.167Z,0.00
2018-08-16T02:53:38.144Z,0.00
2018-08-16T02:54:38.118Z,0.00
2018-08-16T02:55:38.092Z,0.00
2018-08-16T02:56:38.072Z,0.00
2018-08-16T02:57:38.039Z,0.00
2018-08-16T02:58:38.016Z,0.00
2018-08-16T02:59:37.991Z,0.00
2018-08-16T03:00:37.966Z,0.00
2018-08-16T03:01:37.941Z,0.00
2018-08-16T03:02:37.921Z,0.00
2018-08-16T03:03:37.890Z,0.00
2018-08-16T03:04:37.867Z,0.00
2018-08-16T03:05:37.841Z,0.00
2018-08-16T03:06:37.821Z,0.00
2018-08-16T03:07:37.794Z,0.00
2018-08-16T03:08:37.767Z,0.00
2018-08-16T03:09:37.743Z,0.00
2018-08-16T03:10:37.718Z,0.00
2018-08-16T03:11:37.693Z,0.00
2018-08-16T03:12:37.672Z,0.00
2018-08-16T03:13:37.646Z,0.00
2018-08-16T03:14:37.625Z,0.00
2018-08-16T03:15:37.595Z,0.00
2018-08-16T03:16:37.569Z,0.00
2018-08-16T03:17:37.545Z,0.00
2018-08-16T03:18:37.520Z,0.00
2018-08-16T03:19:37.494Z,0.00
2018-08-16T03:20:37.473Z,0.00
2018-08-16T03:21:37.446Z,0.00
2018-08-16T03:22:37.430Z,0.00
2018-08-16T03:23:37.398Z,0.00
2018-08-16T03:24:37.377Z,0.00
2018-08-16T03:25:37.347Z,0.00
2018-08-16T03:26:37.524Z,0.00
2018-08-16T03:27:37.299Z,0.00
2018-08-16T03:28:37.272Z,0.00
2018-08-16T03:29:37.249Z,0.00
2018-08-16T03:30:37.223Z,0.00
2018-08-16T03:31:37.203Z,0.00
2018-08-16T03:32:37.172Z,0.00
2018-08-16T03:33:37.148Z,0.00
2018-08-16T03:34:37.123Z,0.00
2018-08-16T03:35:37.098Z,0.00
2018-08-16T03:36:37.073Z,0.00
2018-08-16T03:37:37.056Z,0.00
2018-08-16T03:38:37.024Z,0.00
2018-08-16T03:39:37.007Z,0.00
2018-08-16T03:40:36.974Z,0.00
2018-08-16T03:41:36.953Z,0.00
2018-08-16T03:42:36.924Z,0.00
2018-08-16T03:43:36.899Z,0.00
2018-08-16T03:44:36.875Z,0.00
2018-08-16T03:45:36.851Z,0.00
2018-08-16T03:46:36.825Z,5.63
2018-08-16T03:47:36.799Z,5.63
2018-08-16T03:48:36.777Z,5.63
2018-08-16T03:49:36.751Z,5.63
2018-08-16T03:50:36.726Z,5.63
2018-08-16T03:51:36.703Z,5.63
2018-08-16T03:52:36.678Z,5.63
2018-08-16T03:53:36.654Z,11.25
2018-08-16T03:54:36.626Z,11.25
2018-08-16T03:55:36.751Z,11.25
2018-08-16T03:56:36.577Z,11.25
2018-08-16T03:57:36.550Z,16.88
2018-08-16T03:58:36.527Z,16.88
2018-08-16T03:59:36.501Z,16.88
2018-08-16T04:00:36.477Z,16.88
2018-08-16T04:01:36.452Z,22.50
2018-08-16T04:02:36.432Z,22.50
2018-08-16T04:03:36.408Z,28.13
2018-08-16T04:04:36.377Z,28.13
2018-08-16T04:05:36.353Z,28.13
2018-08-16T04:06:36.330Z,33.75
2018-08-16T04:07:36.303Z,33.75
2018-08-16T04:08:36.280Z,39.38
2018-08-16T04:09:36.253Z,39.38
2018-08-16T04:10:36.227Z,45.00
2018-08-16T04:11:36.202Z,45.00
2018-08-16T04:12:36.177Z,50.63
2018-08-16T04:13:36.152Z,56.25
2018-08-16T04:14:36.128Z,56.25
2018-08-16T04:15:36.103Z,61.88
2018-08-16T04:16:36.081Z,61.88
2018-08-16T04:17:36.056Z,61.88
2018-08-16T04:18:36.054Z,67.50
2018-08-16T04:19:36.005Z,73.13
2018-08-16T04:20:35.982Z,73.13
2018-08-16T04:21:35.953Z,78.75
2018-08-16T04:22:35.929Z,84.38
2018-08-16T04:23:35.942Z,90.00
2018-08-16T04:24:35.882Z,90.00
2018-08-16T04:25:35.854Z,101.25
2018-08-16T04:26:35.830Z,101.25
2018-08-16T04:27:35.808Z,106.88
2018-08-16T04:28:35.782Z,112.50
2018-08-16T04:29:35.757Z,112.50
2018-08-16T04:30:35.884Z,118.13
2018-08-16T04:31:35.704Z,118.13
2018-08-16T04:32:35.678Z,123.75
2018-08-16T04:33:35.655Z,129.38
2018-08-16T04:34:35.629Z,135.00
2018-08-16T04:35:35.632Z,135.00
2018-08-16T04:36:35.582Z,146.25
2018-08-16T04:37:35.554Z,151.88
2018-08-16T04:38:35.531Z,157.50
2018-08-16T04:39:35.506Z,163.13
2018-08-16T04:40:35.483Z,168.75
2018-08-16T04:41:35.493Z,174.38
2018-08-16T04:42:35.433Z,180.00
2018-08-16T04:43:35.408Z,185.63
2018-08-16T04:44:35.382Z,191.25
2018-08-16T04:45:35.358Z,196.88
2018-08-16T04:46:35.335Z,202.50
2018-08-16T04:47:35.308Z,208.13
2018-08-16T04:48:35.331Z,213.75
2018-08-16T04:49:35.262Z,219.38
2018-08-16T04:50:35.235Z,225.00
2018-08-16T04:51:35.209Z,230.63
2018-08-16T04:52:35.186Z,236.25
2018-08-16T04:53:35.162Z,247.50
2018-08-16T04:54:35.137Z,253.13
2018-08-16T04:55:35.113Z,258.75
2018-08-16T04:56:35.091Z,270.00
2018-08-16T04:57:35.074Z,281.25
2018-08-16T04:58:35.040Z,286.88
2018-08-16T04:59:35.015Z,292.50
2018-08-16T05:00:34.993Z,292.50
2018-08-16T05:01:34.968Z,292.50
2018-08-16T05:02:34.944Z,303.75
2018-08-16T05:03:34.919Z,315.00
2018-08-16T05:04:34.894Z,320.63
2018-08-16T05:05:34.871Z,331.88
2018-08-16T05:06:34.849Z,343.13
2018-08-16T05:07:34.822Z,365.63
2018-08-16T05:08:34.802Z,365.63
2018-08-16T05:09:34.775Z,376.88
2018-08-16T05:10:34.751Z,388.13
2018-08-16T05:11:34.728Z,405.00
2018-08-16T05:12:34.702Z,399.38
2018-08-16T05:13:34.679Z,410.63
2018-08-16T05:14:34.660Z,427.50
2018-08-16T05:15:34.633Z,433.13
2018-08-16T05:16:34.610Z,438.75
2018-08-16T05:17:34.586Z,444.38
2018-08-16T05:18:34.561Z,455.63
2018-08-16T05:19:34.536Z,455.63
2018-08-16T05:20:34.516Z,466.88
2018-08-16T05:21:34.492Z,478.13
2018-08-16T05:22:34.467Z,483.75
2018-08-16T05:23:34.444Z,483.75
2018-08-16T05:24:34.421Z,500.63
2018-08-16T05:25:34.404Z,511.88
2018-08-16T05:26:34.373Z,523.13
2018-08-16T05:27:34.349Z,528.75
2018-08-16T05:28:34.370Z,540.00
2018-08-16T05:29:34.305Z,556.88
2018-08-16T05:30:34.279Z,562.50
2018-08-16T05:31:34.289Z,573.75
2018-08-16T05:32:34.235Z,579.38
2018-08-16T05:33:34.209Z,590.63
2018-08-16T05:34:34.189Z,596.25
2018-08-16T05:35:34.167Z,613.13
2018-08-16T05:36:34.138Z,624.38
2018-08-16T05:37:34.120Z,635.63
2018-08-16T05:38:34.093Z,652.50
2018-08-16T05:39:34.076Z,663.75
2018-08-16T05:40:34.203Z,675.00
2018-08-16T05:41:34.024Z,697.50
2018-08-16T05:42:34.005Z,708.75
2018-08-16T05:43:34.038Z,720.00
2018-08-16T05:44:33.956Z,736.88
2018-08-16T05:45:33.934Z,753.75
2018-08-16T05:46:34.112Z,759.38
2018-08-16T05:47:33.892Z,770.63
2018-08-16T05:48:33.867Z,781.88
2018-08-16T05:49:33.842Z,810.00
2018-08-16T05:50:33.821Z,821.25
2018-08-16T05:51:33.801Z,838.13
2018-08-16T05:52:33.777Z,849.38
2018-08-16T05:53:33.755Z,860.63
2018-08-16T05:54:33.730Z,860.63
2018-08-16T05:55:33.711Z,849.38
2018-08-16T05:56:33.693Z,866.25
2018-08-16T05:57:33.663Z,871.88
2018-08-16T05:58:33.641Z,905.63
2018-08-16T05:59:33.622Z,922.50
2018-08-16T06:00:33.596Z,939.38
2018-08-16T06:01:33.575Z,956.25
2018-08-16T06:02:33.553Z,978.75
2018-08-16T06:03:33.530Z,990.00
2018-08-16T06:04:33.511Z,1018.13
2018-08-16T06:05:33.488Z,1040.63
2018-08-16T06:06:33.465Z,1040.63
2018-08-16T06:07:33.474Z,1051.88
2018-08-16T06:08:33.429Z,1068.75
2018-08-16T06:09:33.402Z,1085.63
2018-08-16T06:10:33.382Z,1091.25
2018-08-16T06:11:33.357Z,1091.25
2018-08-16T06:12:33.340Z,1119.38
2018-08-16T06:13:33.314Z,1141.88
2018-08-16T06:14:33.292Z,1141.88
2018-08-16T06:15:33.348Z,1158.75
2018-08-16T06:16:33.250Z,1181.25
2018-08-16T06:17:33.231Z,1209.38
2018-08-16T06:18:33.617Z,1226.25
2018-08-16T06:19:33.190Z,1248.75
2018-08-16T06:20:33.168Z,1260.00
2018-08-16T06:21:33.346Z,1265.63
2018-08-16T06:22:33.325Z,1282.50
2018-08-16T06:23:33.101Z,1310.63
2018-08-16T06:24:33.080Z,1344.38
2018-08-16T06:25:33.060Z,1361.25
2018-08-16T06:26:33.242Z,1327.50
2018-08-16T06:27:33.018Z,1350.00
2018-08-16T06:28:33.199Z,1366.88
2018-08-16T06:29:32.977Z,1400.63
2018-08-16T06:30:32.957Z,1417.50
2018-08-16T06:31:33.165Z,1434.38
2018-08-16T06:32:32.935Z,1456.88
2018-08-16T06:34:15.051Z,1485.00
2018-08-16T06:35:15.030Z,1479.38
2018-08-16T06:36:15.010Z,1501.88
2018-08-16T06:37:14.995Z,1535.63
2018-08-16T06:38:14.974Z,1518.75
2018-08-16T06:39:14.949Z,1535.63
2018-08-16T06:40:15.139Z,1546.88
2018-08-16T06:41:15.113Z,1552.50
2018-08-16T06:42:14.891Z,1575.00
2018-08-16T06:43:15.073Z,1608.75
2018-08-16T06:44:17.675Z,1631.25
2018-08-16T06:45:15.037Z,1631.25
2018-08-16T06:46:15.069Z,1636.88
2018-08-16T06:47:14.792Z,1631.25
2018-08-16T06:48:14.774Z,1653.75
2018-08-16T06:49:14.755Z,1636.88
2018-08-16T06:50:14.736Z,1676.25
2018-08-16T06:51:14.918Z,1693.13
2018-08-16T06:52:14.898Z,1648.13
2018-08-16T06:53:14.677Z,1620.00
2018-08-16T06:54:14.663Z,1603.13
2018-08-16T06:55:14.640Z,1586.25
2018-08-16T06:56:14.621Z,1546.88
2018-08-16T06:57:14.601Z,1513.13
2018-08-16T06:58:14.640Z,1524.38
2018-08-16T06:59:14.564Z,1479.38
2018-08-16T07:00:14.545Z,1468.13
2018-08-16T07:01:14.532Z,1485.00
2018-08-16T07:02:14.512Z,1518.75
2018-08-16T07:03:14.693Z,1513.13
2018-08-16T07:04:14.673Z,1513.13
2018-08-16T07:05:14.453Z,1507.50
2018-08-16T07:06:14.435Z,1479.38
2018-08-16T07:07:14.416Z,1451.25
2018-08-16T07:08:14.600Z,1743.75
2018-08-16T07:09:14.582Z,2064.38
2018-08-16T07:10:14.565Z,2188.13
2018-08-16T07:11:14.345Z,2210.63
2018-08-16T07:12:56.686Z,2182.50
2018-08-16T07:13:56.666Z,2176.88
2018-08-16T07:14:57.053Z,2182.50
2018-08-16T07:15:56.635Z,2176.88
2018-08-16T07:16:56.412Z,2115.00
2018-08-16T07:17:56.393Z,2058.75
2018-08-16T07:18:56.375Z,2030.63
2018-08-16T07:19:56.359Z,2030.63
2018-08-16T07:20:56.342Z,2070.00
2018-08-16T07:21:56.324Z,2092.50
2018-08-16T07:22:56.514Z,2086.88
2018-08-16T07:23:56.491Z,2070.00
2018-08-16T07:24:56.534Z,2075.63
2018-08-16T07:25:56.457Z,2210.63
2018-08-16T07:26:56.237Z,2221.88
2018-08-16T07:27:56.227Z,2311.88
2018-08-16T07:28:56.203Z,2362.50
2018-08-16T07:30:38.544Z,2559.38
2018-08-16T07:31:41.761Z,2525.63
2018-08-16T07:32:38.511Z,2356.88
2018-08-16T08:21:25.134Z,2655.00
2018-08-16T08:22:25.118Z,2638.13
2018-08-16T08:23:25.104Z,2722.50
2018-08-16T08:24:25.093Z,2655.00
2018-08-16T08:25:24.867Z,2610.00
2018-08-16T08:26:25.051Z,2728.13
2018-08-16T08:27:25.039Z,2773.13
2018-08-16T08:28:27.642Z,2812.50
2018-08-16T08:29:25.005Z,2750.63
2018-08-16T08:30:24.992Z,2784.38
2018-08-16T08:31:24.776Z,2857.50
2018-08-16T08:32:24.960Z,2733.75
2018-08-16T08:33:24.743Z,2638.13
2018-08-16T08:34:24.725Z,2694.38
2018-08-16T08:35:24.916Z,2683.13
2018-08-16T08:36:26.113Z,2683.13
2018-08-16T08:37:24.886Z,2660.63
2018-08-16T08:38:24.681Z,2660.63
2018-08-16T08:39:24.653Z,2649.38
2018-08-16T08:40:24.844Z,2643.75
2018-08-16T08:41:24.628Z,2576.25
2018-08-16T08:42:24.610Z,2576.25
2018-08-16T08:43:24.598Z,2655.00
2018-08-16T08:44:24.583Z,2660.63
2018-08-16T08:45:24.569Z,2700.00
2018-08-16T08:46:24.564Z,2750.63
2018-08-16T08:47:24.539Z,2722.50
2018-08-16T08:48:24.527Z,2671.88
2018-08-16T08:49:24.512Z,2801.25
2018-08-16T08:50:24.726Z,2868.75
2018-08-16T08:51:24.686Z,2829.38
2018-08-16T08:52:25.278Z,2829.38
2018-08-16T08:53:24.666Z,2745.00
2018-08-16T08:56:31.124Z,2857.50
2018-08-16T08:57:31.109Z,2953.13
2018-08-16T08:58:30.892Z,2863.13
2018-08-16T08:59:31.007Z,2745.00
2018-08-16T09:00:31.072Z,2790.00
2018-08-16T09:01:30.852Z,2919.38
2018-08-16T09:02:30.835Z,2992.50
2018-08-16T09:03:31.024Z,3003.75
2018-08-16T09:05:55.330Z,3211.88
2018-08-16T09:06:55.117Z,3217.50
2018-08-16T09:07:55.303Z,3065.63
2018-08-16T09:08:55.289Z,3065.63
2018-08-16T09:09:55.275Z,3166.88
2018-08-16T09:10:55.463Z,3217.50
2018-08-16T09:11:55.248Z,3223.13
2018-08-16T09:12:57.855Z,2812.50
2018-08-16T09:13:55.221Z,2975.63
2018-08-16T09:14:55.231Z,3420.00
2018-08-16T09:15:55.196Z,3504.38
2018-08-16T09:16:57.600Z,3549.38
2018-08-16T09:17:55.166Z,3251.25
2018-08-16T09:19:37.312Z,3352.50
2018-08-16T09:20:37.302Z,3206.25
2018-08-16T09:21:37.286Z,3172.50
2018-08-16T09:22:37.271Z,3228.75
2018-08-16T09:25:01.580Z,3161.25
2018-08-16T09:26:01.564Z,1451.25
2018-08-16T09:27:04.174Z,2677.50
2018-08-16T09:28:01.333Z,1833.75
2018-08-16T09:29:01.318Z,1215.00
2018-08-16T09:30:01.512Z,1406.25
2018-08-16T09:31:01.537Z,2486.25
2018-08-16T09:32:01.884Z,1518.75
2018-08-16T09:33:01.464Z,3178.13
2018-08-16T09:38:14.591Z,1260.00
2018-08-16T09:39:56.581Z,1243.13
2018-08-16T09:40:56.310Z,3425.63
2018-08-16T09:41:56.293Z,3363.75
2018-08-16T09:42:56.276Z,1417.50
2018-08-16T09:43:56.267Z,3442.50
2018-08-16T09:44:56.448Z,3223.13
2018-08-16T09:45:56.225Z,3414.38
2018-08-16T09:46:56.208Z,3510.00
2018-08-16T09:47:56.203Z,3301.88
2018-08-16T09:48:56.174Z,3532.50
2018-08-16T09:49:56.157Z,3864.38
2018-08-16T09:50:56.142Z,3982.50
2018-08-16T09:51:56.125Z,3701.25
2018-08-16T09:52:56.109Z,3645.00
2018-08-16T09:53:56.093Z,3605.63
2018-08-16T09:54:56.079Z,1355.63
2018-08-16T09:55:56.062Z,3577.50
2018-08-16T09:56:56.044Z,3622.50
2018-08-16T10:00:44.865Z,3740.63
2018-08-16T10:01:44.646Z,3538.13
2018-08-16T10:02:46.072Z,3560.63
2018-08-16T10:10:46.406Z,4021.88
2018-08-16T10:11:46.391Z,3780.00
2018-08-16T10:12:46.172Z,3982.50
2018-08-16T10:13:47.371Z,2238.75
2018-08-16T10:14:46.349Z,3470.63
2018-08-16T10:15:46.128Z,3780.00
2018-08-16T10:16:46.115Z,3841.88
2018-08-16T10:17:46.106Z,3706.88
2018-08-16T10:18:46.085Z,3870.00
2018-08-16T10:19:46.070Z,3853.13
2018-08-16T10:20:46.269Z,3622.50
2018-08-16T10:21:46.246Z,3690.00
2018-08-16T10:22:46.029Z,3976.88
2018-08-16T10:23:46.013Z,4016.25
2018-08-16T10:24:46.202Z,3853.13
2018-08-16T10:25:47.200Z,3375.00
2018-08-16T10:26:45.973Z,3825.00
2018-08-16T10:27:45.959Z,3886.88
2018-08-16T10:28:45.944Z,3819.38
2018-08-16T10:29:45.931Z,1383.75
2018-08-16T10:30:45.917Z,1828.13
2018-08-16T10:31:45.903Z,1411.88
2018-08-16T10:32:45.888Z,3420.00
2018-08-16T10:33:45.879Z,3982.50
2018-08-16T10:34:45.866Z,1423.13
2018-08-16T10:35:45.844Z,3751.88
2018-08-16T10:36:45.829Z,2902.50
2018-08-16T10:37:45.833Z,3746.25
2018-08-16T10:38:45.800Z,1423.13
2018-08-16T10:39:45.787Z,3701.25
2018-08-16T10:40:45.770Z,3858.75
2018-08-16T10:41:45.754Z,3729.38
2018-08-16T10:42:45.942Z,3757.50
2018-08-16T10:43:48.549Z,3864.38
2018-08-16T10:44:45.913Z,3903.75
2018-08-16T10:45:48.518Z,3875.63
2018-08-16T10:46:45.884Z,3802.50
2018-08-16T10:47:45.867Z,3802.50
2018-08-16T10:50:52.327Z,3971.25
2018-08-16T10:51:52.115Z,3909.38
2018-08-16T10:52:52.096Z,3982.50
2018-08-16T10:53:52.090Z,4027.50
2018-08-16T10:54:52.878Z,3723.75
2018-08-16T10:55:52.256Z,3909.38
2018-08-16T10:56:52.192Z,3470.63
2018-08-16T10:57:52.024Z,4055.63
2018-08-16T10:58:52.014Z,1625.63
2018-08-16T10:59:51.998Z,4252.50
2018-08-16T11:00:51.983Z,4179.38
2018-08-16T11:02:34.332Z,4016.25
2018-08-16T11:03:34.319Z,4095.00
2018-08-16T11:04:34.311Z,4241.25
2018-08-16T11:05:34.293Z,3988.13
2018-08-16T11:12:53.729Z,4123.13
2018-08-16T11:13:53.507Z,4173.75
2018-08-16T11:14:53.696Z,4145.63
2018-08-16T11:15:53.685Z,4078.13
2018-08-16T11:16:53.669Z,4196.25
2018-08-16T11:17:53.657Z,3785.63
2018-08-16T11:18:53.720Z,4106.25
2018-08-16T11:19:54.643Z,2137.50
2018-08-16T11:20:53.417Z,2221.88
2018-08-16T11:22:35.773Z,1552.50
2018-08-16T11:23:35.553Z,4156.88
2018-08-16T11:24:35.540Z,4398.75
2018-08-16T11:25:35.532Z,4263.75
2018-08-16T11:26:35.513Z,4269.38
2018-08-16T11:27:35.500Z,4134.38
2018-08-16T11:28:35.498Z,4021.88
2018-08-16T11:29:35.482Z,4044.38
2018-08-16T11:30:35.516Z,3245.63
2018-08-16T11:31:35.447Z,2722.50
2018-08-16T11:32:35.436Z,2053.13
2018-08-16T11:33:35.424Z,1951.88
2018-08-16T11:34:35.408Z,1788.75
2018-08-16T11:35:35.409Z,3633.75
2018-08-16T11:36:35.530Z,4393.13
2018-08-16T11:37:35.367Z,4308.75
2018-08-16T11:38:35.353Z,4387.50
2018-08-16T11:39:35.339Z,4370.63
2018-08-16T11:40:35.383Z,1794.38
2018-08-16T11:41:35.312Z,1839.38
2018-08-16T11:42:35.300Z,4095.00
2018-08-16T11:43:35.283Z,1620.00
2018-08-16T11:44:35.270Z,2503.13
2018-08-16T11:45:35.256Z,1861.88
2018-08-16T11:46:35.320Z,4353.75
2018-08-16T11:47:35.231Z,4201.88
2018-08-16T11:48:35.218Z,3380.63
2018-08-16T11:49:35.200Z,1715.63
2018-08-16T11:50:35.185Z,1940.63
2018-08-16T11:51:35.172Z,1771.88
2018-08-16T11:52:35.357Z,3403.13
2018-08-16T11:53:35.343Z,4173.75
2018-08-16T11:54:35.126Z,2958.75
2018-08-16T11:55:35.111Z,1805.63
2018-08-16T11:56:35.099Z,3639.38
2018-08-16T11:57:35.084Z,4477.50
2018-08-16T11:58:35.121Z,4342.50
2018-08-16T11:59:35.053Z,4252.50
2018-08-16T12:00:35.039Z,4140.00
2018-08-16T12:01:35.026Z,4083.75
2018-08-16T12:02:35.013Z,1507.50
2018-08-16T12:03:34.997Z,1445.63
2018-08-16T12:04:35.198Z,3836.25
2018-08-16T12:05:34.973Z,4106.25
2018-08-16T12:06:34.958Z,4106.25
2018-08-16T12:07:34.943Z,4106.25
2018-08-16T12:08:34.930Z,3830.63
2018-08-16T12:09:34.919Z,3695.63
2018-08-16T12:10:35.107Z,1687.50
2018-08-16T12:11:34.890Z,2210.63
2018-08-16T12:12:34.876Z,4117.50
2018-08-16T12:13:34.865Z,3976.88
2018-08-16T12:14:34.898Z,4111.88
2018-08-16T12:15:34.837Z,4117.50
2018-08-16T12:16:34.823Z,3993.75
2018-08-16T12:17:34.809Z,4083.75
2018-08-16T12:18:34.798Z,4123.13
2018-08-16T12:19:34.789Z,4005.00
2018-08-16T12:20:34.770Z,3785.63
2018-08-16T12:21:34.758Z,4308.75
2018-08-16T12:22:34.748Z,4050.00
2018-08-16T12:23:34.731Z,3898.13
2018-08-16T12:24:34.717Z,3948.75
2018-08-16T12:25:34.710Z,3847.50
2018-08-16T12:26:34.692Z,3892.50
2018-08-16T12:27:34.677Z,1738.13
2018-08-16T12:28:34.665Z,2171.25
2018-08-16T12:29:34.655Z,3543.75
2018-08-16T12:30:34.694Z,2998.13
2018-08-16T12:31:34.633Z,1766.25
2018-08-16T12:32:34.613Z,1687.50
2018-08-16T12:33:34.603Z,1665.00
2018-08-16T12:34:34.588Z,3791.25
2018-08-16T12:35:34.573Z,1839.38
2018-08-16T12:36:34.560Z,1951.88
2018-08-16T12:37:34.550Z,1946.25
2018-08-16T12:38:34.532Z,1890.00
2018-08-16T12:39:34.517Z,1721.25
2018-08-16T12:40:34.505Z,1788.75
2018-08-16T12:41:34.489Z,2885.63
2018-08-16T12:42:34.475Z,1923.75
2018-08-16T12:43:34.665Z,4314.38
2018-08-16T12:44:34.446Z,4275.00
2018-08-16T12:45:34.431Z,4072.50
2018-08-16T12:46:34.424Z,2025.00
2018-08-16T12:47:34.417Z,4387.50
2018-08-16T12:48:34.388Z,4235.63
2018-08-16T12:49:34.375Z,4083.75
2018-08-16T12:50:34.363Z,4021.88
2018-08-16T12:51:34.346Z,4050.00
2018-08-16T12:52:34.535Z,3965.63
2018-08-16T12:53:34.371Z,4010.63
2018-08-16T12:54:34.514Z,3931.88
2018-08-16T12:55:34.292Z,1991.25
2018-08-16T12:56:34.278Z,3735.00
2018-08-16T12:57:34.267Z,3898.13
2018-08-16T12:58:37.080Z,3853.13
2018-08-16T12:59:34.241Z,2981.25
2018-08-16T13:00:34.230Z,3999.38
2018-08-16T13:01:35.633Z,3870.00
2018-08-16T13:02:34.204Z,1985.63
2018-08-16T13:03:34.191Z,2632.50
2018-08-16T13:04:34.184Z,3414.38
2018-08-16T13:05:34.169Z,1434.38
2018-08-16T13:06:34.152Z,3566.25
2018-08-16T13:07:34.143Z,3307.50
2018-08-16T13:08:34.135Z,3526.88
2018-08-16T13:09:38.150Z,3616.88
2018-08-16T13:10:34.305Z,2705.63
2018-08-16T13:11:34.089Z,2711.25
2018-08-16T13:12:34.075Z,1873.13
2018-08-16T13:13:34.064Z,2908.13
2018-08-16T13:14:34.049Z,3791.25
2018-08-16T13:15:34.040Z,3701.25
2018-08-16T13:16:34.019Z,3898.13
2018-08-16T13:18:16.167Z,3622.50
2018-08-16T13:19:16.152Z,3431.25
2018-08-16T13:20:16.138Z,3380.63
2018-08-16T13:21:16.126Z,3538.13
2018-08-16T13:22:16.111Z,3380.63
2018-08-16T13:23:16.095Z,3526.88
2018-08-16T13:24:16.285Z,3543.75
2018-08-16T13:25:16.070Z,3628.13
2018-08-16T13:26:16.056Z,3532.50
2018-08-16T13:27:16.042Z,3487.50
2018-08-16T13:28:16.028Z,1378.13
2018-08-16T13:29:16.019Z,2413.13
2018-08-16T13:30:16.003Z,1873.13
2018-08-16T13:31:16.066Z,3571.88
2018-08-16T13:32:15.976Z,3701.25
2018-08-16T13:33:16.115Z,3825.00
2018-08-16T13:34:16.154Z,3892.50
2018-08-16T13:35:15.937Z,3712.50
2018-08-16T13:36:15.927Z,3774.38
2018-08-16T13:37:15.977Z,3791.25
2018-08-16T13:38:15.898Z,3594.38
2018-08-16T13:39:15.883Z,3414.38
2018-08-16T13:40:15.871Z,1901.25
2018-08-16T13:41:15.860Z,2368.13
2018-08-16T13:42:15.854Z,1991.25
2018-08-16T13:43:15.835Z,1558.13
2018-08-16T13:44:16.027Z,1220.63
2018-08-16T13:45:15.807Z,1237.50
2018-08-16T13:46:15.794Z,2340.00
2018-08-16T13:47:15.780Z,2666.25
2018-08-16T13:48:15.826Z,2795.63
2018-08-16T13:49:15.758Z,2795.63
2018-08-16T13:50:15.740Z,2655.00
2018-08-16T13:51:58.087Z,2525.63
2018-08-16T13:52:58.074Z,1530.00